createdAt,value
2024-01-22T00:00:56.742Z,639.00
2024-01-22T00:02:06.131Z,637.00
2024-01-22T00:02:56.762Z,639.00
2024-01-22T00:03:56.701Z,639.00
2024-01-22T00:04:56.721Z,639.00
2024-01-22T00:05:56.818Z,639.00
2024-01-22T00:07:01.172Z,638.00
2024-01-22T00:07:56.710Z,638.00
2024-01-22T00:08:56.719Z,639.00
2024-01-22T00:09:56.707Z,640.00
2024-01-22T00:10:56.732Z,640.00
2024-01-22T00:12:01.174Z,640.00
2024-01-22T00:12:56.707Z,639.00
2024-01-22T00:13:56.701Z,639.00
2024-01-22T00:14:56.743Z,636.00
2024-01-22T00:15:56.711Z,640.00
2024-01-22T00:16:56.729Z,639.00
2024-01-22T00:17:56.812Z,636.00
2024-01-22T00:18:56.870Z,637.00
2024-01-22T00:19:56.739Z,641.00
2024-01-22T00:20:56.767Z,636.00
2024-01-22T00:21:56.724Z,636.00
2024-01-22T00:22:56.729Z,636.00
2024-01-22T00:23:56.755Z,639.00
2024-01-22T00:24:56.748Z,637.00
2024-01-22T00:25:56.729Z,633.00
2024-01-22T00:26:56.829Z,638.00
2024-01-22T00:27:56.799Z,639.00
2024-01-22T00:28:56.868Z,640.00
2024-01-22T00:29:56.987Z,638.00
2024-01-22T00:30:57.017Z,638.00
2024-01-22T00:31:57.072Z,642.00
2024-01-22T00:32:57.374Z,634.00
2024-01-22T00:33:57.301Z,632.00
2024-01-22T00:34:57.366Z,637.00
2024-01-22T00:35:57.382Z,632.00
2024-01-22T00:36:57.410Z,637.00
2024-01-22T00:37:57.457Z,635.00
2024-01-22T00:38:57.547Z,635.00
2024-01-22T00:39:57.560Z,637.00
2024-01-22T00:40:57.606Z,638.00
2024-01-22T00:41:57.679Z,635.00
2024-01-22T00:42:57.690Z,636.00
2024-01-22T00:43:57.742Z,637.00
2024-01-22T00:44:57.864Z,635.00
2024-01-22T00:45:57.834Z,635.00
2024-01-22T00:46:57.887Z,637.00
2024-01-22T00:47:57.996Z,630.00
2024-01-22T00:48:58.136Z,638.00
2024-01-22T00:49:58.015Z,632.00
2024-01-22T00:50:58.152Z,636.00
2024-01-22T00:51:58.156Z,637.00
2024-01-22T00:52:58.240Z,636.00
2024-01-22T00:53:58.363Z,636.00
2024-01-22T00:54:58.358Z,634.00
2024-01-22T00:55:58.428Z,638.00
2024-01-22T00:56:58.544Z,635.00
2024-01-22T00:57:58.560Z,635.00
2024-01-22T00:58:58.622Z,634.00
2024-01-22T00:59:58.720Z,637.00
2024-01-22T01:00:58.737Z,637.00
2024-01-22T01:01:58.768Z,634.00
2024-01-22T01:02:58.914Z,635.00
2024-01-22T01:03:58.910Z,635.00
2024-01-22T01:04:59.050Z,640.00
2024-01-22T01:05:59.000Z,632.00
2024-01-22T01:06:59.016Z,633.00
2024-01-22T01:07:59.056Z,634.00
2024-01-22T01:08:59.160Z,632.00
2024-01-22T01:09:59.172Z,635.00
2024-01-22T01:10:59.272Z,638.00
2024-01-22T01:11:59.378Z,635.00
2024-01-22T01:12:59.403Z,636.00
2024-01-22T01:13:59.479Z,631.00
2024-01-22T01:14:59.567Z,637.00
2024-01-22T01:15:59.596Z,634.00
2024-01-22T01:16:59.690Z,630.00
2024-01-22T01:17:59.890Z,638.00
2024-01-22T01:18:59.938Z,635.00
2024-01-22T01:19:59.898Z,632.00
2024-01-22T01:20:59.994Z,636.00
2024-01-22T01:22:00.038Z,633.00
2024-01-22T01:23:00.137Z,631.00
2024-01-22T01:24:00.309Z,636.00
2024-01-22T01:25:00.273Z,633.00
2024-01-22T01:26:00.317Z,631.00
2024-01-22T01:27:00.429Z,632.00
2024-01-22T01:28:00.524Z,635.00
2024-01-22T01:29:00.528Z,627.00
2024-01-22T01:30:00.697Z,630.00
2024-01-22T01:31:00.662Z,635.00
2024-01-22T01:32:00.724Z,633.00
2024-01-22T01:33:00.928Z,635.00
2024-01-22T01:34:00.959Z,635.00
2024-01-22T01:35:00.934Z,628.00
2024-01-22T01:36:01.067Z,635.00
2024-01-22T01:37:01.070Z,635.00
2024-01-22T01:38:01.133Z,633.00
2024-01-22T01:39:01.232Z,633.00
2024-01-22T01:40:01.306Z,628.00
2024-01-22T01:41:01.358Z,633.00
2024-01-22T01:42:01.462Z,630.00
2024-01-22T01:43:01.494Z,632.00
2024-01-22T01:44:01.535Z,634.00
2024-01-22T01:45:01.659Z,635.00
2024-01-22T01:46:01.642Z,636.00
2024-01-22T01:47:01.693Z,633.00
2024-01-22T01:48:01.876Z,634.00
2024-01-22T01:49:01.991Z,632.00
2024-01-22T01:50:01.865Z,633.00
2024-01-22T01:51:02.025Z,635.00
2024-01-22T01:52:01.993Z,632.00
2024-01-22T01:53:02.063Z,636.00
2024-01-22T01:54:02.159Z,632.00
2024-01-22T01:55:02.189Z,638.00
2024-01-22T01:56:02.283Z,632.00
2024-01-22T01:57:02.389Z,629.00
2024-01-22T01:58:05.837Z,633.00
2024-01-22T01:59:02.415Z,631.00
2024-01-22T02:00:02.642Z,631.00
2024-01-22T02:01:02.555Z,633.00
2024-01-22T02:02:02.422Z,632.00
2024-01-22T02:03:02.534Z,633.00
2024-01-22T02:04:02.475Z,633.00
2024-01-22T02:05:02.461Z,633.00
2024-01-22T02:06:02.511Z,638.00
2024-01-22T02:07:02.425Z,633.00
2024-01-22T02:08:02.419Z,628.00
2024-01-22T02:09:02.461Z,636.00
2024-01-22T02:10:02.427Z,630.00
2024-01-22T02:11:02.448Z,633.00
2024-01-22T02:12:02.472Z,632.00
2024-01-22T02:13:02.442Z,631.00
2024-01-22T02:14:02.435Z,627.00
2024-01-22T02:15:02.472Z,633.00
2024-01-22T02:16:02.434Z,634.00
2024-01-22T02:17:02.449Z,632.00
2024-01-22T02:18:02.606Z,630.00
2024-01-22T02:19:02.558Z,631.00
2024-01-22T02:20:02.470Z,634.00
2024-01-22T02:21:02.593Z,636.00
2024-01-22T02:22:02.668Z,628.00
2024-01-22T02:23:02.661Z,632.00
2024-01-22T02:24:02.791Z,630.00
2024-01-22T02:25:02.823Z,629.00
2024-01-22T02:26:02.878Z,636.00
2024-01-22T02:27:03.007Z,629.00
2024-01-22T02:28:03.257Z,636.00
2024-01-22T02:29:03.091Z,629.00
2024-01-22T02:30:03.225Z,632.00
2024-01-22T02:31:03.215Z,633.00
2024-01-22T02:32:03.302Z,632.00
2024-01-22T02:33:03.500Z,629.00
2024-01-22T02:34:03.589Z,633.00
2024-01-22T02:35:03.501Z,632.00
2024-01-22T02:36:04.228Z,630.00
2024-01-22T02:37:08.182Z,632.00
2024-01-22T02:38:03.641Z,633.00
2024-01-22T02:39:03.650Z,632.00
2024-01-22T02:40:03.649Z,633.00
2024-01-22T02:41:03.638Z,631.00
2024-01-22T02:42:03.640Z,631.00
2024-01-22T02:43:03.648Z,636.00
2024-01-22T02:44:03.658Z,635.00
2024-01-22T02:45:03.706Z,632.00
2024-01-22T02:46:03.661Z,635.00
2024-01-22T02:47:03.664Z,634.00
2024-01-22T02:48:03.849Z,629.00
2024-01-22T02:49:03.780Z,635.00
2024-01-22T02:50:03.719Z,635.00
2024-01-22T02:51:03.746Z,633.00
2024-01-22T02:52:03.673Z,634.00
2024-01-22T02:53:03.712Z,632.00
2024-01-22T02:54:03.787Z,629.00
2024-01-22T02:55:03.843Z,636.00
2024-01-22T02:56:03.910Z,628.00
2024-01-22T02:57:14.084Z,631.00
2024-01-22T02:58:04.002Z,631.00
2024-01-22T02:59:03.974Z,631.00
2024-01-22T03:00:04.102Z,633.00
2024-01-22T03:01:04.080Z,631.00
2024-01-22T03:02:04.028Z,633.00
2024-01-22T03:03:04.009Z,631.00
2024-01-22T03:04:04.068Z,634.00
2024-01-22T03:05:03.984Z,634.00
2024-01-22T03:06:04.064Z,634.00
2024-01-22T03:07:04.059Z,633.00
2024-01-22T03:08:04.016Z,627.00
2024-01-22T03:09:04.082Z,632.00
2024-01-22T03:10:04.019Z,633.00
2024-01-22T03:11:04.001Z,631.00
2024-01-22T03:12:04.028Z,631.00
2024-01-22T03:13:04.005Z,635.00
2024-01-22T03:14:04.005Z,634.00
2024-01-22T03:15:04.083Z,633.00
2024-01-22T03:16:04.020Z,631.00
2024-01-22T03:17:04.012Z,634.00
2024-01-22T03:18:04.443Z,633.00
2024-01-22T03:19:04.324Z,635.00
2024-01-22T03:20:04.150Z,631.00
2024-01-22T03:21:04.240Z,632.00
2024-01-22T03:22:04.254Z,633.00
2024-01-22T03:23:04.302Z,634.00
2024-01-22T03:24:04.412Z,633.00
2024-01-22T03:25:04.430Z,634.00
2024-01-22T03:26:04.501Z,630.00
2024-01-22T03:27:04.588Z,632.00
2024-01-22T03:28:04.652Z,631.00
2024-01-22T03:29:04.712Z,636.00
2024-01-22T03:30:04.871Z,632.00
2024-01-22T03:31:04.857Z,634.00
2024-01-22T03:32:04.952Z,635.00
2024-01-22T03:33:05.079Z,633.00
2024-01-22T03:34:05.138Z,638.00
2024-01-22T03:35:05.162Z,636.00
2024-01-22T03:36:05.314Z,636.00
2024-01-22T03:37:05.271Z,632.00
2024-01-22T03:38:05.328Z,631.00
2024-01-22T03:39:05.396Z,630.00
2024-01-22T03:40:05.444Z,635.00
2024-01-22T03:41:05.509Z,630.00
2024-01-22T03:42:05.655Z,633.00
2024-01-22T03:43:05.667Z,630.00
2024-01-22T03:44:05.738Z,630.00
2024-01-22T03:45:05.803Z,635.00
2024-01-22T03:46:05.820Z,631.00
2024-01-22T03:47:05.868Z,629.00
2024-01-22T03:48:06.045Z,630.00
2024-01-22T03:49:06.188Z,626.00
2024-01-22T03:50:06.151Z,635.00
2024-01-22T03:51:06.193Z,631.00
2024-01-22T03:52:06.232Z,634.00
2024-01-22T03:53:06.295Z,632.00
2024-01-22T03:54:06.370Z,629.00
2024-01-22T03:55:06.459Z,634.00
2024-01-22T03:56:06.935Z,634.00
2024-01-22T03:57:06.545Z,627.00
2024-01-22T03:58:06.602Z,632.00
2024-01-22T03:59:06.683Z,633.00
2024-01-22T04:00:06.759Z,635.00
2024-01-22T04:01:06.857Z,630.00
2024-01-22T04:02:06.851Z,631.00
2024-01-22T04:03:06.978Z,631.00
2024-01-22T04:04:06.999Z,632.00
2024-01-22T04:05:06.976Z,632.00
2024-01-22T04:06:07.081Z,632.00
2024-01-22T04:07:07.254Z,631.00
2024-01-22T04:08:07.137Z,638.00
2024-01-22T04:09:07.241Z,634.00
2024-01-22T04:10:07.296Z,632.00
2024-01-22T04:11:07.338Z,635.00
2024-01-22T04:12:07.447Z,635.00
2024-01-22T04:13:07.485Z,629.00
2024-01-22T04:14:07.571Z,634.00
2024-01-22T04:15:07.708Z,634.00
2024-01-22T04:16:07.707Z,633.00
2024-01-22T04:17:07.786Z,632.00
2024-01-22T04:18:07.946Z,633.00
2024-01-22T04:19:07.980Z,630.00
2024-01-22T04:20:08.080Z,636.00
2024-01-22T04:21:08.108Z,631.00
2024-01-22T04:22:08.158Z,632.00
2024-01-22T04:23:08.212Z,631.00
2024-01-22T04:24:08.322Z,629.00
2024-01-22T04:25:08.347Z,632.00
2024-01-22T04:26:08.425Z,626.00
2024-01-22T04:27:08.613Z,632.00
2024-01-22T04:28:08.570Z,632.00
2024-01-22T04:29:08.620Z,633.00
2024-01-22T04:30:08.739Z,633.00
2024-01-22T04:31:08.736Z,634.00
2024-01-22T04:32:08.960Z,631.00
2024-01-22T04:33:08.988Z,631.00
2024-01-22T04:34:09.047Z,630.00
2024-01-22T04:35:09.027Z,629.00
2024-01-22T04:36:09.219Z,628.00
2024-01-22T04:37:09.111Z,632.00
2024-01-22T04:38:09.159Z,632.00
2024-01-22T04:39:09.240Z,629.00
2024-01-22T04:40:09.269Z,629.00
2024-01-22T04:41:09.322Z,634.00
2024-01-22T04:42:09.434Z,632.00
2024-01-22T04:43:09.463Z,633.00
2024-01-22T04:44:09.535Z,635.00
2024-01-22T04:45:09.641Z,635.00
2024-01-22T04:46:09.680Z,631.00
2024-01-22T04:47:09.731Z,628.00
2024-01-22T04:48:09.929Z,628.00
2024-01-22T04:49:09.991Z,631.00
2024-01-22T04:50:09.949Z,635.00
2024-01-22T04:51:10.013Z,631.00
2024-01-22T04:52:10.034Z,635.00
2024-01-22T04:53:10.112Z,634.00
2024-01-22T04:54:10.246Z,627.00
2024-01-22T04:55:21.826Z,600.00
2024-01-22T04:56:18.533Z,600.00
2024-01-22T04:57:17.615Z,600.00
2024-01-22T04:58:17.537Z,600.00
2024-01-22T04:59:17.532Z,600.00
2024-01-22T05:00:17.622Z,600.00
2024-01-22T05:01:17.551Z,603.00
2024-01-22T05:02:17.544Z,602.00
2024-01-22T05:03:17.614Z,603.00
2024-01-22T05:04:17.631Z,604.00
2024-01-22T05:05:17.664Z,608.00
2024-01-22T05:06:17.815Z,604.00
2024-01-22T05:07:17.744Z,607.00
2024-01-22T05:08:17.825Z,606.00
2024-01-22T05:09:17.935Z,605.00
2024-01-22T05:10:17.971Z,604.00
2024-01-22T05:11:18.048Z,606.00
2024-01-22T05:12:18.144Z,605.00
2024-01-22T05:13:18.139Z,605.00
2024-01-22T05:14:18.208Z,604.00
2024-01-22T05:15:18.344Z,600.00
2024-01-22T05:16:18.318Z,607.00
2024-01-22T05:17:18.335Z,610.00
2024-01-22T05:18:20.977Z,612.00
2024-01-22T05:19:18.519Z,612.00
2024-01-22T05:20:18.480Z,611.00
2024-01-22T05:21:18.502Z,608.00
2024-01-22T05:22:18.455Z,607.00
2024-01-22T05:23:18.407Z,608.00
2024-01-22T05:24:18.622Z,610.00
2024-01-22T05:25:18.528Z,611.00
2024-01-22T05:26:18.433Z,608.00
2024-01-22T05:27:18.519Z,611.00
2024-01-22T05:28:18.400Z,610.00
2024-01-22T05:29:18.448Z,608.00
2024-01-22T05:30:18.498Z,611.00
2024-01-22T05:31:18.460Z,606.00
2024-01-22T05:32:18.494Z,604.00
2024-01-22T05:33:18.508Z,610.00
2024-01-22T05:34:18.645Z,608.00
2024-01-22T05:35:18.478Z,609.00
2024-01-22T05:36:18.524Z,612.00
2024-01-22T05:37:18.476Z,605.00
2024-01-22T05:38:18.420Z,607.00
2024-01-22T05:39:18.608Z,607.00
2024-01-22T05:40:18.480Z,607.00
2024-01-22T05:41:18.516Z,605.00
2024-01-22T05:42:18.560Z,605.00
2024-01-22T05:43:18.545Z,609.00
2024-01-22T05:44:18.491Z,608.00
2024-01-22T05:45:18.642Z,609.00
2024-01-22T05:46:18.486Z,608.00
2024-01-22T05:47:18.474Z,611.00
2024-01-22T05:48:18.715Z,606.00
2024-01-22T05:49:18.792Z,607.00
2024-01-22T05:50:18.477Z,608.00
2024-01-22T05:51:18.582Z,606.00
2024-01-22T05:52:18.471Z,610.00
2024-01-22T05:53:18.448Z,602.00
2024-01-22T05:54:18.486Z,605.00
2024-01-22T05:55:19.841Z,607.00
2024-01-22T05:56:18.551Z,605.00
2024-01-22T05:57:18.491Z,606.00
2024-01-22T05:58:18.576Z,606.00
2024-01-22T05:59:18.484Z,606.00
2024-01-22T06:00:18.540Z,607.00
2024-01-22T06:01:18.868Z,606.00
2024-01-22T06:02:18.532Z,600.00
2024-01-22T06:03:18.566Z,610.00
2024-01-22T06:04:18.591Z,606.00
2024-01-22T06:05:18.545Z,610.00
2024-01-22T06:06:18.584Z,604.00
2024-01-22T06:07:18.542Z,606.00
2024-01-22T06:08:18.480Z,612.00
2024-01-22T06:09:18.589Z,608.00
2024-01-22T06:10:18.762Z,607.00
2024-01-22T06:11:18.567Z,602.00
2024-01-22T06:12:18.655Z,605.00
2024-01-22T06:13:18.544Z,605.00
2024-01-22T06:14:18.551Z,606.00
2024-01-22T06:15:18.659Z,610.00
2024-01-22T06:16:18.558Z,611.00
2024-01-22T06:17:18.525Z,605.00
2024-01-22T06:18:18.648Z,605.00
2024-01-22T06:19:18.594Z,613.00
2024-01-22T06:20:18.573Z,606.00
2024-01-22T06:21:18.638Z,610.00
2024-01-22T06:22:18.627Z,609.00
2024-01-22T06:23:18.585Z,604.00
2024-01-22T06:24:18.960Z,610.00
2024-01-22T06:25:18.669Z,611.00
2024-01-22T06:26:19.224Z,609.00
2024-01-22T06:27:18.853Z,609.00
2024-01-22T06:28:18.863Z,609.00
2024-01-22T06:29:18.902Z,609.00
2024-01-22T06:30:19.047Z,602.00
2024-01-22T06:31:19.002Z,607.00
2024-01-22T06:32:19.052Z,601.00
2024-01-22T06:33:19.208Z,608.00
2024-01-22T06:34:19.457Z,608.00
2024-01-22T06:35:19.120Z,605.00
2024-01-22T06:36:19.234Z,613.00
2024-01-22T06:37:19.220Z,606.00
2024-01-22T06:38:19.255Z,609.00
2024-01-22T06:39:19.395Z,609.00
2024-01-22T06:40:19.407Z,608.00
2024-01-22T06:41:19.395Z,610.00
2024-01-22T06:42:27.480Z,612.00
2024-01-22T06:43:20.490Z,612.00
2024-01-22T06:44:19.482Z,612.00
2024-01-22T06:45:19.564Z,612.00
2024-01-22T06:46:19.504Z,609.00
2024-01-22T06:47:19.480Z,611.00
2024-01-22T06:48:19.592Z,609.00
2024-01-22T06:49:19.678Z,611.00
2024-01-22T06:50:19.546Z,612.00
2024-01-22T06:51:27.149Z,610.00
2024-01-22T06:52:20.504Z,610.00
2024-01-22T06:53:19.484Z,610.00
2024-01-22T06:54:20.884Z,610.00
2024-01-22T06:55:19.488Z,611.00
2024-01-22T06:56:19.507Z,614.00
2024-01-22T06:57:19.542Z,613.00
2024-01-22T06:58:19.486Z,613.00
2024-01-22T06:59:19.485Z,618.00
2024-01-22T07:00:19.532Z,615.00
2024-01-22T07:01:19.528Z,611.00
2024-01-22T07:02:19.499Z,610.00
2024-01-22T07:03:19.594Z,610.00
2024-01-22T07:04:19.693Z,609.00
2024-01-22T07:05:19.557Z,601.00
2024-01-22T07:06:22.349Z,603.00
2024-01-22T07:07:19.505Z,603.00
2024-01-22T07:08:19.520Z,606.00
2024-01-22T07:09:19.576Z,610.00
2024-01-22T07:10:19.522Z,618.00
2024-01-22T07:11:19.505Z,630.00
2024-01-22T07:12:19.594Z,636.00
2024-01-22T07:13:19.521Z,640.00
2024-01-22T07:14:19.542Z,642.00
2024-01-22T07:15:19.605Z,644.00
2024-01-22T07:16:19.589Z,647.00
2024-01-22T07:17:19.553Z,650.00
2024-01-22T07:18:19.709Z,655.00
2024-01-22T07:19:19.610Z,658.00
2024-01-22T07:20:19.534Z,663.00
2024-01-22T07:21:19.659Z,663.00
2024-01-22T07:22:19.667Z,670.00
2024-01-22T07:23:19.746Z,687.00
2024-01-22T07:24:19.762Z,681.00
2024-01-22T07:25:19.702Z,701.00
2024-01-22T07:26:19.556Z,712.00
2024-01-22T07:27:19.619Z,717.00
2024-01-22T07:28:19.567Z,717.00
2024-01-22T07:29:19.593Z,740.00
2024-01-22T07:30:19.624Z,739.00
2024-01-22T07:31:19.585Z,750.00
2024-01-22T07:32:19.672Z,749.00
2024-01-22T07:33:19.819Z,763.00
2024-01-22T07:34:21.314Z,771.00
2024-01-22T07:35:19.832Z,779.00
2024-01-22T07:36:19.933Z,778.00
2024-01-22T07:37:19.962Z,786.00
2024-01-22T07:38:20.027Z,796.00
2024-01-22T07:39:20.188Z,795.00
2024-01-22T07:40:20.193Z,802.00
2024-01-22T07:41:20.252Z,809.00
2024-01-22T07:42:20.389Z,807.00
2024-01-22T07:43:20.386Z,815.00
2024-01-22T07:44:20.461Z,818.00
2024-01-22T07:45:20.524Z,826.00
2024-01-22T07:46:20.537Z,839.00
2024-01-22T07:47:23.204Z,832.00
2024-01-22T07:48:20.690Z,851.00
2024-01-22T07:49:20.631Z,856.00
2024-01-22T07:50:20.588Z,860.00
2024-01-22T07:51:20.658Z,855.00
2024-01-22T07:52:20.591Z,867.00
2024-01-22T07:53:20.627Z,867.00
2024-01-22T07:54:20.648Z,954.00
2024-01-22T07:55:20.614Z,987.00
2024-01-22T07:56:20.611Z,1003.00
2024-01-22T07:57:20.762Z,1007.00
2024-01-22T07:58:20.816Z,986.00
2024-01-22T07:59:20.629Z,963.00
2024-01-22T08:00:20.722Z,967.00
2024-01-22T08:01:20.686Z,973.00
2024-01-22T08:02:20.633Z,976.00
2024-01-22T08:03:20.679Z,981.00
2024-01-22T08:04:20.678Z,994.00
2024-01-22T08:05:20.634Z,995.00
2024-01-22T08:06:20.664Z,1014.00
2024-01-22T08:07:21.208Z,1018.00
2024-01-22T08:08:20.626Z,1009.00
2024-01-22T08:09:20.735Z,1028.00
2024-01-22T08:10:20.631Z,1023.00
2024-01-22T08:11:20.631Z,1026.00
2024-01-22T08:12:20.722Z,1034.00
2024-01-22T08:13:20.646Z,1028.00
2024-01-22T08:14:20.624Z,1031.00
2024-01-22T08:15:20.662Z,1038.00
2024-01-22T08:16:20.630Z,1040.00
2024-01-22T08:17:20.651Z,1040.00
2024-01-22T08:18:20.836Z,1041.00
2024-01-22T08:19:20.772Z,1038.00
2024-01-22T08:20:20.681Z,1046.00
2024-01-22T08:21:20.713Z,1051.00
2024-01-22T08:22:20.644Z,1051.00
2024-01-22T08:23:20.666Z,1048.00
2024-01-22T08:24:20.802Z,1053.00
2024-01-22T08:25:21.115Z,1055.00
2024-01-22T08:26:20.652Z,1052.00
2024-01-22T08:27:20.725Z,1070.00
2024-01-22T08:28:20.659Z,1075.00
2024-01-22T08:29:20.664Z,1077.00
2024-01-22T08:30:20.727Z,1084.00
2024-01-22T08:31:20.690Z,1082.00
2024-01-22T08:32:20.676Z,1087.00
2024-01-22T08:33:20.900Z,1084.00
2024-01-22T08:34:20.825Z,1093.00
2024-01-22T08:35:21.041Z,1093.00
2024-01-22T08:36:20.730Z,1091.00
2024-01-22T08:37:20.776Z,1087.00
2024-01-22T08:38:20.760Z,1099.00
2024-01-22T08:39:20.727Z,1098.00
2024-01-22T08:40:20.686Z,1103.00
2024-01-22T08:41:20.691Z,1106.00
2024-01-22T08:42:20.802Z,1107.00
2024-01-22T08:43:20.693Z,1104.00
2024-01-22T08:44:20.691Z,1115.00
2024-01-22T08:45:20.742Z,1110.00
2024-01-22T08:46:20.709Z,1120.00
2024-01-22T08:47:20.700Z,1110.00
2024-01-22T08:48:20.788Z,1115.00
2024-01-22T08:49:20.718Z,1120.00
2024-01-22T08:50:20.701Z,1126.00
2024-01-22T08:51:20.805Z,1126.00
2024-01-22T08:52:20.715Z,1128.00
2024-01-22T08:53:20.762Z,1140.00
2024-01-22T08:54:20.941Z,1135.00
2024-01-22T08:55:20.868Z,1142.00
2024-01-22T08:56:20.933Z,1134.00
2024-01-22T08:57:21.119Z,1133.00
2024-01-22T08:58:21.037Z,1140.00
2024-01-22T08:59:21.101Z,1134.00
2024-01-22T09:00:21.196Z,1128.00
2024-01-22T09:01:21.334Z,1117.00
2024-01-22T09:02:21.261Z,1130.00
2024-01-22T09:03:21.325Z,1131.00
2024-01-22T09:04:21.391Z,1113.00
2024-01-22T09:05:21.488Z,1114.00
2024-01-22T09:06:21.435Z,1114.00
2024-01-22T09:07:21.407Z,1110.00
2024-01-22T09:08:21.417Z,1116.00
2024-01-22T09:09:21.545Z,1105.00
2024-01-22T09:10:21.447Z,1105.00
2024-01-22T09:11:21.475Z,1106.00
2024-01-22T09:12:21.548Z,1103.00
2024-01-22T09:13:22.188Z,1101.00
2024-01-22T09:14:21.658Z,1100.00
2024-01-22T09:15:21.949Z,1099.00
2024-01-22T09:16:21.771Z,1096.00
2024-01-22T09:17:21.862Z,1089.00
2024-01-22T09:18:22.004Z,1092.00
2024-01-22T09:19:22.061Z,1085.00
2024-01-22T09:20:22.088Z,1081.00
2024-01-22T09:21:22.180Z,1087.00
2024-01-22T09:22:22.157Z,1080.00
2024-01-22T09:23:22.197Z,1073.00
2024-01-22T09:24:22.246Z,1078.00
2024-01-22T09:25:22.217Z,1070.00
2024-01-22T09:26:22.261Z,1065.00
2024-01-22T09:27:22.362Z,1063.00
2024-01-22T09:28:22.603Z,1068.00
2024-01-22T09:29:22.420Z,1073.00
2024-01-22T09:30:29.809Z,600.00
2024-01-22T09:31:29.744Z,600.00
2024-01-22T09:32:29.764Z,600.00
2024-01-22T09:33:29.847Z,600.00
2024-01-22T09:34:29.793Z,600.00
2024-01-22T09:35:29.727Z,600.00
2024-01-22T09:36:29.825Z,601.00
2024-01-22T09:37:29.729Z,603.00
2024-01-22T09:38:29.737Z,604.00
2024-01-22T09:39:29.726Z,600.00
2024-01-22T09:40:30.891Z,604.00
2024-01-22T09:41:29.726Z,600.00
2024-01-22T09:42:29.753Z,604.00
2024-01-22T09:43:29.759Z,602.00
2024-01-22T09:44:29.748Z,605.00
2024-01-22T09:45:29.813Z,601.00
2024-01-22T09:46:29.732Z,602.00
2024-01-22T09:47:29.767Z,602.00
2024-01-22T09:48:29.798Z,602.00
2024-01-22T09:49:29.901Z,601.00
2024-01-22T09:50:29.754Z,603.00
2024-01-22T09:51:29.781Z,601.00
2024-01-22T09:52:29.768Z,606.00
2024-01-22T09:53:29.767Z,606.00
2024-01-22T09:54:29.855Z,606.00
2024-01-22T09:55:29.749Z,603.00
2024-01-22T09:56:29.764Z,603.00
2024-01-22T09:57:29.798Z,604.00
2024-01-22T09:58:29.772Z,604.00
2024-01-22T09:59:29.783Z,604.00
2024-01-22T10:00:29.826Z,601.00
2024-01-22T10:01:29.909Z,601.00
2024-01-22T10:02:29.782Z,602.00
2024-01-22T10:03:29.863Z,601.00
2024-01-22T10:04:29.937Z,600.00
2024-01-22T10:05:29.779Z,600.00
2024-01-22T10:06:29.849Z,604.00
2024-01-22T10:07:29.771Z,601.00
2024-01-22T10:08:29.777Z,602.00
2024-01-22T10:09:29.804Z,603.00
2024-01-22T10:10:29.780Z,605.00
2024-01-22T10:11:29.821Z,603.00
2024-01-22T10:12:56.816Z,606.00
2024-01-22T10:13:29.787Z,606.00
2024-01-22T10:14:29.791Z,608.00
2024-01-22T10:15:29.935Z,609.00
2024-01-22T10:16:29.850Z,611.00
2024-01-22T10:17:29.800Z,613.00
2024-01-22T10:18:29.962Z,616.00
2024-01-22T10:19:29.908Z,618.00
2024-01-22T10:20:29.808Z,614.00
2024-01-22T10:21:29.888Z,614.00
2024-01-22T10:22:29.845Z,616.00
2024-01-22T10:23:29.795Z,618.00
2024-01-22T10:24:29.813Z,616.00
2024-01-22T10:25:29.828Z,620.00
2024-01-22T10:26:29.807Z,618.00
2024-01-22T10:27:29.892Z,616.00
2024-01-22T10:28:29.816Z,618.00
2024-01-22T10:29:29.817Z,619.00
2024-01-22T10:30:29.890Z,621.00
2024-01-22T10:31:29.881Z,620.00
2024-01-22T10:32:29.878Z,622.00
2024-01-22T10:33:29.927Z,621.00
2024-01-22T10:34:30.033Z,625.00
2024-01-22T10:35:29.844Z,624.00
2024-01-22T10:36:29.884Z,628.00
2024-01-22T10:37:29.823Z,628.00
2024-01-22T10:38:29.833Z,627.00
2024-01-22T10:39:29.868Z,632.00
2024-01-22T10:40:29.845Z,632.00
2024-01-22T10:41:29.841Z,628.00
2024-01-22T10:42:29.970Z,631.00
2024-01-22T10:43:31.474Z,632.00
2024-01-22T10:44:29.853Z,633.00
2024-01-22T10:45:29.897Z,635.00
2024-01-22T10:46:29.850Z,636.00
2024-01-22T10:47:29.936Z,641.00
2024-01-22T10:48:37.886Z,643.00
2024-01-22T10:49:31.029Z,643.00
2024-01-22T10:50:29.951Z,644.00
2024-01-22T10:51:29.878Z,645.00
2024-01-22T10:52:29.860Z,648.00
2024-01-22T10:53:29.871Z,652.00
2024-01-22T10:54:29.999Z,653.00
2024-01-22T10:55:29.852Z,650.00
2024-01-22T10:56:29.871Z,650.00
2024-01-22T10:57:29.858Z,653.00
2024-01-22T10:58:29.942Z,657.00
2024-01-22T10:59:30.010Z,657.00
2024-01-22T11:00:30.094Z,660.00
2024-01-22T11:01:30.130Z,658.00
2024-01-22T11:02:30.197Z,662.00
2024-01-22T11:03:30.391Z,661.00
2024-01-22T11:04:30.407Z,663.00
2024-01-22T11:05:30.357Z,660.00
2024-01-22T11:06:30.481Z,663.00
2024-01-22T11:07:30.444Z,664.00
2024-01-22T11:08:30.512Z,663.00
2024-01-22T11:09:30.611Z,664.00
2024-01-22T11:10:57.654Z,663.00
2024-01-22T11:11:30.806Z,664.00
2024-01-22T11:12:30.650Z,665.00
2024-01-22T11:13:30.653Z,672.00
2024-01-22T11:14:30.650Z,679.00
2024-01-22T11:15:30.641Z,692.00
2024-01-22T11:16:30.663Z,691.00
2024-01-22T11:17:30.674Z,696.00
2024-01-22T11:18:30.753Z,686.00
2024-01-22T11:19:30.694Z,683.00
2024-01-22T11:20:30.682Z,686.00
2024-01-22T11:21:30.671Z,684.00
2024-01-22T11:22:30.683Z,685.00
2024-01-22T11:23:30.678Z,684.00
2024-01-22T11:24:30.717Z,681.00
2024-01-22T11:25:30.705Z,685.00
2024-01-22T11:26:30.676Z,687.00
2024-01-22T11:27:30.692Z,682.00
2024-01-22T11:28:30.692Z,678.00
2024-01-22T11:29:30.818Z,680.00
2024-01-22T11:30:30.697Z,691.00
2024-01-22T11:31:30.677Z,684.00
2024-01-22T11:32:30.714Z,698.00
2024-01-22T11:33:30.744Z,698.00
2024-01-22T11:34:30.698Z,699.00
2024-01-22T11:35:30.674Z,698.00
2024-01-22T11:36:30.677Z,694.00
2024-01-22T11:37:30.673Z,704.00
2024-01-22T11:38:30.686Z,692.00
2024-01-22T11:39:30.691Z,699.00
2024-01-22T11:40:30.680Z,700.00
2024-01-22T11:41:30.699Z,698.00
2024-01-22T11:42:30.764Z,708.00
2024-01-22T11:43:30.682Z,703.00
2024-01-22T11:44:30.690Z,706.00
2024-01-22T11:45:36.619Z,701.00
2024-01-22T11:46:31.732Z,701.00
2024-01-22T11:47:30.727Z,702.00
2024-01-22T11:48:30.831Z,704.00
2024-01-22T11:49:30.779Z,706.00
2024-01-22T11:50:30.692Z,706.00
2024-01-22T11:51:30.823Z,705.00
2024-01-22T11:52:30.728Z,707.00
2024-01-22T11:53:30.714Z,709.00
2024-01-22T11:54:30.725Z,705.00
2024-01-22T11:55:30.692Z,708.00
2024-01-22T11:56:30.713Z,712.00
2024-01-22T11:57:30.761Z,715.00
2024-01-22T11:58:30.715Z,719.00
2024-01-22T11:59:30.704Z,717.00
2024-01-22T12:00:30.803Z,721.00
2024-01-22T12:01:30.720Z,728.00
2024-01-22T12:02:30.760Z,731.00
2024-01-22T12:03:30.833Z,736.00
2024-01-22T12:04:30.777Z,736.00
2024-01-22T12:05:30.797Z,740.00
2024-01-22T12:06:30.986Z,742.00
2024-01-22T12:07:30.942Z,744.00
2024-01-22T12:08:30.986Z,758.00
2024-01-22T12:09:30.963Z,745.00
2024-01-22T12:10:30.993Z,756.00
2024-01-22T12:11:30.986Z,764.00
2024-01-22T12:12:31.006Z,754.00
2024-01-22T12:13:31.013Z,768.00
2024-01-22T12:14:31.073Z,775.00
2024-01-22T12:15:31.246Z,762.00
2024-01-22T12:16:31.115Z,771.00
2024-01-22T12:17:31.148Z,782.00
2024-01-22T12:18:31.218Z,782.00
2024-01-22T12:19:31.168Z,783.00
2024-01-22T12:20:31.237Z,791.00
2024-01-22T12:21:31.162Z,789.00
2024-01-22T12:22:31.191Z,787.00
2024-01-22T12:23:31.289Z,791.00
2024-01-22T12:24:31.296Z,791.00
2024-01-22T12:25:31.493Z,795.00
2024-01-22T12:26:31.298Z,786.00